CheckWX is a tool to help pilots better visualize weather data.  It is not intended as a substitute for an official pre-flight weather briefing.

21:26:01 UTC

KCTZ METAR
Sampson County Airport
Clinton, North Carolina, USA
Current

11 mins ago

KCTZ 112115Z AUTO 25003KT 10SM CLR 32/23 A2981 RMK AO2 T03200225
Observed
Jul-11 @ 21:15 UTC
Wind
  • 250° at 3 KTS
Visibility
10 SM
Flight Rules
VFR
Cloud Levels
  • Clear skies
Temperature
32°C / 90°F
Dewpoint
22°C / 72°F
Humidity
55%
Altimeter
29.81" Hg
Pressure
1009.52 hPa
Previous

31 mins ago

KCTZ 112055Z AUTO 35003KT 10SM CLR 33/22 A2980 RMK AO2 T03280223
Observed
Jul-11 @ 20:55 UTC
Wind
  • 350° at 3 KTS
Visibility
10 SM
Flight Rules
VFR
Cloud Levels
  • Clear skies
Temperature
33°C / 91°F
Dewpoint
22°C / 72°F
Humidity
52%
Altimeter
29.8" Hg
Pressure
1009.12 hPa
Previous

51 mins ago

KCTZ 112035Z AUTO 00000KT 10SM CLR 33/23 A2981 RMK AO2 T03270225
Observed
Jul-11 @ 20:35 UTC
Visibility
10 SM
Flight Rules
VFR
Cloud Levels
  • Clear skies
Temperature
33°C / 91°F
Dewpoint
22°C / 72°F
Humidity
52%
Altimeter
29.81" Hg
Pressure
1009.52 hPa